• Join FlightAware (Why Join?)
  • Login
  • US Flag 
11:03PM EST


 

Airport Tracker/Info


-or-


 

Live Flight TrackerFlight Track Log ✈ CTL17 ✈ 06-May-2013 ✈ KYIP - KBKL

Flight Track Log - Related Links

Times and Time Zones

All times are in EDT time to prevent confusion due to time zone crossing. See the CTL17 flight status page for this flight to view local times or setup timezone preferences in your user account.

Time Position Orientation Groundspeed Altitude Reporting Facility
EDT Latitude Longitude Course Direction KTS MPH feet Rate Location/Type
05:31PM 42.2572 -83.5486 300° West 144 166 1,700  Level Cleveland Center
05:33PM 42.2371 -83.4829 113° Southeast  Level FlightAware Approximate
05:33PM 42.2656 -83.6333 113° Southeast 138 159 3,900  Level Cleveland Center
05:35PM 42.2509 -83.5679 107° East  Level FlightAware Approximate
05:35PM 42.2300 -83.5503 107° East 134 154 5,100  Level Cleveland Center
05:36PM 42.2106 -83.4958 116° Southeast 166 191 5,000  Descending Cleveland Center
05:38PM 42.2156 -83.4306 84° East  Level FlightAware Approximate
05:38PM 42.1697 -83.3819 84° East 162 186 5,100  Level Cleveland Center
05:39PM 42.1500 -83.3308 117° Southeast 164 189 5,100  Level Cleveland Center
05:40PM 42.1283 -83.2767 118° Southeast 163 188 5,100  Level Cleveland Center
05:41PM 42.1069 -83.2197 117° Southeast 164 189 5,200  Climbing Cleveland Center
05:42PM 42.0831 -83.1600 118° Southeast 162 186 5,100 -60 Descending Cleveland Center
05:44PM 42.0832 -83.1036 90° East  Level FlightAware Approximate
05:44PM 42.0436 -83.0578 90° East 162 186 5,100  Level Cleveland Center
05:45PM 42.0239 -83.0067 117° Southeast 160 184 5,100  Level Cleveland Center
05:46PM 42.0042 -82.9528 116° Southeast 163 188 5,100  Level Cleveland Center
05:47PM 41.9825 -82.8933 116° Southeast 160 184 5,100  Level Cleveland Center
05:49PM 41.9636 -82.8431 117° Southeast  Level Estimated
05:49PM 41.9464 -82.8222 117° Southeast 162 186 5,100  Level Cleveland Center
05:50PM 41.9225 -82.7628 118° Southeast 159 183 5,100  Level Cleveland Center
05:51PM 41.9047 -82.7119 115° Southeast 160 184 5,100  Level Cleveland Center
05:52PM 41.8786 -82.6581 123° Southeast 161 185 5,100 -60 Level Cleveland Center
05:54PM 41.8534 -82.5889 116° Southeast  Level Estimated
05:58PM 41.7528 -82.3367 116° Southeast 165 190 4,700  Level Cleveland Center
05:59PM 41.7306 -82.2831 119° Southeast 169 194 4,300 -480 Descending Cleveland Center
06:01PM 41.7282 -82.2479 116° Southeast  Level Estimated
06:01PM 41.7070 -82.2160 115° Southeast  Level Estimated
06:01PM 41.6819 -82.1761 115° Southeast 170 196 3,400  Level Cleveland Center
06:02PM 41.7102 -82.1993 116° Southeast  Level Estimated
06:02PM 41.6578 -82.1117 117° Southeast 169 194 3,000  Level Cleveland Center
06:03PM 41.6922 -82.1508 116° Southeast  Level Estimated
06:03PM 41.6356 -82.0583 119° Southeast 165 190 2,700  Level Cleveland Center
06:04PM 41.6742 -82.1022 116° Southeast  Level Estimated
06:04PM 41.6133 -82.0050 119° Southeast 163 188 2,400  Level Cleveland Center
06:06PM 41.6179 -81.9447 118° Southeast  Level FlightAware Approximate
06:07PM 41.5506 -81.8511 108° East 155 178 1,700  Level Cleveland Center
06:08PM 41.5322 -81.8064 119° Southeast 148 170 1,600 -120 Descending Cleveland Center
06:13PM 41.5175 -81.6833 108° East  Level Estimated